Norris Rancho Marino Reserve, California Weather observations

Data are for 10 minute period ending at time listed.
 Day   Time   Solar   Ave.   Ave.  Ave.  Vector  Max.   Baro.   Total    
  of    of     Rad.   Air    Rel.  Wind   Wind   Wind  Press.  Precip.   
Year   Day            Temp.  Hum.  Speed  Dir.   Gust                    
2017   (PST)  Kw/m2    F      %     mph   deg.    mph    mb.     in.     
-------------------------------------------------------------------------
 295    3:50   0.00   56.4    62    1.4   354     3.7   1019.8    0.00 
 295    4:00   0.00   56.2    66    1.0   322     2.6   1019.8    0.00 
 295    4:10   0.00   56.8    59    1.0    24     3.4   1019.7    0.00 
 295    4:20   0.00   58.8    53    3.2    17     7.2   1019.7    0.00 
 295    4:30   0.00   56.6    68    5.6   313     7.5   1019.7    0.00 
 295    4:40   0.00   56.4    72    1.7     5     3.9   1019.8    0.00 
 295    4:50   0.00   60.2    51    4.0    46     9.4   1019.8    0.00 
 295    5:00   0.00   63.7    43    4.2    55     9.9   1019.8    0.00 
 295    5:10   0.00   63.5    43    3.3    33     9.6   1019.8    0.00 
 295    5:20   0.00   64.1    42    4.1    20     9.7   1019.9    0.00 
 295    5:30   0.00   63.1    43    4.3     9    10.2   1020.1    0.00 
 295    5:40   0.00   64.6    40    5.6     9    11.2   1020.0    0.00 
 295    5:50   0.00   65.0    39    6.0     3    14.5   1019.9    0.00 
 295    6:00   0.00   64.4    40    5.7    12    12.1   1020.0    0.00 
 295    6:10   0.00   65.0    39    5.7     5    13.9   1020.0    0.00 
 295    6:20   0.01   65.5    38    8.1   348    15.9   1020.1    0.00 
 295    6:30   0.01   65.7    38    8.4   335    17.2   1020.1    0.00 
 295    6:40   0.01   65.3    39    7.7   334    13.6   1020.2    0.00 
 295    6:50   0.01   64.3    40    2.8     1     7.5   1020.3    0.00 
 295    7:00   0.03   62.3    44    4.1    90     6.6   1020.3    0.00 
 295    7:10   0.06   60.4    49    4.0    42     5.9   1020.4    0.00 
 295    7:20   0.13   61.2    48    3.8    32     5.9   1020.6    0.00 
 295    7:30   0.15   63.0    45    2.8    88     6.1   1020.9    0.00 
 295    7:40   0.19   63.6    46    2.3   101     5.9   1021.2    0.00 
 295    7:50   0.22   65.9    40    4.1    55     7.8   1021.3    0.00 
 295    8:00   0.25   66.8    38    6.0    39    11.2   1021.4    0.00 
 295    8:10   0.28   67.3    38    3.7    56    11.2   1021.5    0.00 
 295    8:20   0.31   67.6    38    4.9    22    14.3   1021.5    0.00 
 295    8:30   0.34   68.0    37    4.7    33    12.2   1021.5    0.00 
 295    8:40   0.37   68.6    37    4.2    58    10.8   1021.4    0.00 
 295    8:50   0.40   68.8    37    4.9    17    11.0   1021.4    0.00 
 295    9:00   0.42   69.4    36    5.9    20    14.2   1021.2    0.00 
 295    9:10   0.45   70.2    35    5.4    77    14.7   1021.1    0.00 
 295    9:20   0.48   70.9    34    4.8    47    11.9   1021.0    0.00 
 295    9:30   0.50   71.8    33    5.1   358    14.5   1020.9    0.00 
 295    9:40   0.52   72.2    32    6.7   346    15.1   1020.8    0.00 
 295    9:50   0.54   72.3    32    9.0   347    17.8   1020.8    0.00 
 295   10:00   0.56   72.5    32    9.2   348    18.8   1020.8    0.00 
 295   10:10   0.58   72.9    31    7.7   337    19.0   1020.8    0.00 
 295   10:20   0.60   73.1    31    7.3   353    17.5   1020.8    0.00 
 295   10:30   0.62   73.9    30    6.0   339    12.1   1020.7    0.00 
 295   10:40   0.64   74.4    30    5.2    16    14.1   1020.6    0.00 
 295   10:50   0.65   75.3    30    5.9    11    18.2   1020.5    0.00 
 295   11:00   0.66   75.1    30    8.0    13    19.3   1020.5    0.00 
 295   11:10   0.67   75.0    30    9.1     8    17.2   1020.4    0.00 
 295   11:20   0.68   76.4    29    6.7   350    20.6   1020.3    0.00 
 295   11:30   0.68   77.7    28    5.7   321    14.5   1020.3    0.00 
 295   11:40   0.68   76.4    30    6.2   276    10.9   1020.2    0.00 
 295   11:50   0.68   76.6    30    7.0   298    16.7   1020.0    0.00 
 295   12:00   0.69   77.2    28    7.3   341    17.0   1019.7    0.00 
 295   12:10   0.69   78.0    28    5.8   298    13.2   1019.3    0.00 
 295   12:20   0.68   72.8    37   10.2   291    16.4   1019.2    0.00 
 295   12:30   0.68   69.6    46   11.4   295    15.9   1019.0    0.00 
 295   12:40   0.67   67.2    54    8.5   290    12.3   1019.0    0.00 
 295   12:50   0.66   66.0    60    8.8   292    15.6   1019.1    0.00 
 295   13:00   0.65   67.0    56   11.4   302    15.9   1019.1    0.00 
 295   13:10   0.64   67.2    56   11.0   297    14.3   1018.9    0.00 
 295   13:20   0.63   65.4    60   11.7   278    15.9   1018.8    0.00 
 295   13:30   0.62   65.1    60   14.0   289    17.3   1018.7    0.00 
 295   13:40   0.60   67.4    53   13.9   295    18.6   1018.7    0.00 
 295   13:50   0.58   68.8    49   14.5   298    17.1   1018.6    0.00 
 295   14:00   0.57   71.6    39   13.5   302    17.7   1018.5    0.00 
 295   14:10   0.55   72.2    39   12.8   292    17.0   1018.3    0.00 
 295   14:20   0.52   66.4    52   13.6   293    17.4   1018.4    0.00 
 295   14:30   0.50   69.7    42   13.4   297    16.9   1018.3    0.00 
 295   14:40   0.45   72.1    36   14.6   313    19.6   1018.3    0.00 
 295   14:50   0.45   71.2    37   14.2   312    19.5   1018.2    0.00 
 295   15:00   0.42   71.7    37   12.6   316    17.7   1018.1    0.00 
 295   15:10   0.40   71.6    37   14.0   311    19.4   1018.1    0.00 
 295   15:20   0.37   71.6    37   13.4   317    19.3   1017.9    0.00 
 295   15:30   0.34   71.2    38   13.7   318    18.4   1017.7    0.00 
 295   15:40   0.30   71.5    37   13.1   322    18.5   1017.6    0.00 
 295   15:50   0.28   71.1    37   13.8   324    18.6   1017.5    0.00 
 295   16:00   0.24   72.1    35   12.3   328    17.9   1017.5    0.00 
 295   16:10   0.21   72.0    36   12.7   320    18.9   1017.4    0.00 
 295   16:20   0.18   72.4    36   10.8   314    15.5   1017.4    0.00 
 295   16:30   0.15   70.5    42    7.3   300    13.5   1017.5    0.00 
 295   16:40   0.12   66.8    50    7.3   285    13.5   1017.6    0.00 
 295   16:50   0.09   62.9    63   10.2   280    13.2   1017.8    0.00 
 295   17:00   0.07   61.1    70    9.2   288    11.8   1018.0    0.00 
 295   17:10   0.04   60.3    73    7.9   295    12.4   1018.2    0.00 
 295   17:20   0.02   59.6    75    4.7   292     9.1   1018.2    0.00 
 295   17:30   0.01   59.1    76    1.6    30     6.1   1018.1    0.00 
 295   17:40   0.00   59.0    76    1.9   285     6.3   1017.9    0.00 
 295   17:50   0.00   58.1    80    2.8   307     6.4   1017.8    0.00 
 295   18:00   0.00   57.9    80    2.6   143     5.9   1017.8    0.00 
 295   18:10   0.00   57.0    83    3.1   127     5.7   1017.6    0.00 
 295   18:20   0.00   57.0    84    1.0   106     3.1   1017.5    0.00 
 295   18:30   0.00   57.3    85    1.3    32     4.2   1017.4    0.00 
 295   18:40   0.00   56.9    82    2.0   128     5.6   1017.4    0.00 
 295   18:50   0.00   57.3    82    2.0   300     4.2   1017.6    0.00 
 295   19:00   0.00   58.5    81    1.8    61     5.0   1017.6    0.00 
 295   19:10   0.00   59.0    75    3.1   154     6.4   1017.7    0.00 
 295   19:20   0.00   58.2    79    1.7   329     6.6   1017.9    0.00 
 295   19:30   0.00   60.7    72    2.9   141     6.6   1018.0    0.00 
 295   19:40   0.00   61.7    66    1.9    54     3.6   1018.1    0.00 
 295   19:50   0.00   63.7    59    1.4    25     3.8   1018.2    0.00 
 295   20:00   0.00   65.2    52    0.9   349     3.0   1018.2    0.00 
 295   20:10   0.00   67.3    46    2.4    30     4.5   1018.3    0.00 
 295   20:20   0.00   64.1    52    2.2    91     4.3   1018.4    0.00 
 295   20:30   0.00   67.3    44    3.2   100     4.8   1018.5    0.00 
 295   20:40   0.00   67.2    43    3.6    97     5.0   1018.5    0.00 
 295   20:50   0.00   66.5    44    5.3    92     8.0   1018.5    0.00 
 295   21:00   0.00   67.0    43    5.9    96     9.3   1018.5    0.00 
 295   21:10   0.00   65.2    46    3.7    82     6.6   1018.5    0.00 
 295   21:20   0.00   64.8    46    1.8     1     3.5   1018.5    0.00 
 295   21:30   0.00   65.3    45    1.7   344     4.5   1018.5    0.00 
 295   21:40   0.00   65.6    45    1.2   195     4.5   1018.6    0.00 
 295   21:50   0.00   65.3    46    2.0    55     4.2   1018.5    0.00 
 295   22:00   0.00   65.0    48    1.8    85     6.1   1018.6    0.00 
 295   22:10   0.00   65.7    45    1.5   101     4.5   1018.4    0.00 
 295   22:20   0.00   65.8    45    3.4    94     5.6   1018.4    0.00 
 295   22:30   0.00   66.3    44    2.7    71     5.2   1018.3    0.00 
 295   22:40   0.00   67.4    42    3.0    81     6.4   1018.4    0.00 
 295   22:50   0.00   67.0    43    2.7    50     6.0   1018.6    0.00 
 295   23:00   0.00   67.9    41    3.1    35     5.5   1018.6    0.00 
 295   23:10   0.00   70.3    38    4.8   351    10.3   1018.6    0.00 
 295   23:20   0.00   69.8    39    5.1   348    11.2   1018.6    0.00 
 295   23:30   0.00   66.0    45    5.0    94     7.9   1018.7    0.00 
 295   23:40   0.00   65.0    47    4.3    56     6.4   1018.7    0.00 
 295   23:50   0.00   66.5    44    4.4    25     9.8   1018.5    0.00 
 296    0:00   0.00   68.4    41    4.5    25     8.9   1018.4    0.00 
 296    0:10   0.00   69.2    39    4.2    18     9.7   1018.3    0.00 
 296    0:20   0.00   67.9    41    3.8    46     9.3   1018.3    0.00 
 296    0:30   0.00   68.4    40    4.4    43     9.0   1018.2    0.00 
 296    0:40   0.00   67.9    41    3.7    63     9.1   1018.1    0.00 
 296    0:50   0.00   69.3    38    6.3    60    14.4   1018.0    0.00 
 296    1:00   0.00   70.5    36    4.7    50    10.2   1018.0    0.00 
 296    1:10   0.00   70.8    35    3.5    28     8.8   1018.0    0.00 
 296    1:20   0.00   68.9    38    3.4    30     9.5   1018.0    0.00 
 296    1:30   0.00   69.5    36    3.0    32     9.0   1017.9    0.00 
 296    1:40   0.00   71.5    33    2.5    51     7.1   1017.8    0.00 
 296    1:50   0.00   70.1    35    3.8   109     8.6   1017.7    0.00 
 296    2:00   0.00   70.1    35    3.5    61    10.2   1017.7    0.00 
 296    2:10   0.00   71.3    33    5.3    78    14.0   1017.6    0.00 
 296    2:20   0.00   71.5    32    4.0    52     9.9   1017.5    0.00 
 296    2:30   0.00   70.8    33    4.7    96    13.0   1017.4    0.00 
 296    2:40   0.00   70.6    33    3.9    68     9.4   1017.4    0.00 
 296    2:50   0.00   70.8    32    2.8    78     8.8   1017.3    0.00 
 296    3:00   0.00   71.0    32    2.3    67     7.2   1017.2    0.00 
 296    3:10   0.00   71.2    31    3.4    41    13.4   1017.2    0.00 
 296    3:20   0.00   72.9    28    5.7     6    14.7   1017.1    0.00 
 296    3:30   0.00   72.5    29    5.1   123    11.3   1017.1    0.00 
 296    3:40   0.00   71.6    31    3.8   166     9.6   1017.2    0.00 

Return to Norris Rancho Marino Reserve graphs page.


Western Regional Climate Center,wrcc@dri.edu